createdAt,value
2022-08-05T00:00:09.292Z,99835.95
2022-08-05T00:03:07.689Z,99831.63
2022-08-05T00:06:20.234Z,99833.98
2022-08-05T00:09:12.852Z,99827.89
2022-08-05T00:12:02.931Z,99826.89
2022-08-05T00:14:53.022Z,99822.66
2022-08-05T00:17:41.720Z,99819.16
2022-08-05T00:20:29.715Z,99821.52
2022-08-05T00:23:31.054Z,99820.39
2022-08-05T00:26:27.403Z,99820.09
2022-08-05T00:29:15.548Z,99815.05
2022-08-05T00:32:13.194Z,99818.84
2022-08-05T00:35:06.793Z,99812.77
2022-08-05T00:37:56.053Z,99809.38
2022-08-05T00:40:51.935Z,99805.41
2022-08-05T00:43:46.918Z,99811.79
2022-08-05T00:46:42.489Z,99813.80
2022-08-05T00:49:51.505Z,99809.02
2022-08-05T00:52:40.082Z,99808.80
2022-08-05T00:55:42.636Z,99804.71
2022-08-05T00:58:31.869Z,99807.61
2022-08-05T01:01:24.954Z,99807.54
2022-08-05T01:04:29.935Z,99805.17
2022-08-05T01:07:18.200Z,99801.27
2022-08-05T01:10:09.625Z,99804.04
2022-08-05T01:13:13.238Z,99802.38
2022-08-05T01:16:26.097Z,99802.86
2022-08-05T01:19:36.820Z,99798.63
2022-08-05T01:23:23.713Z,99795.04
2022-08-05T01:26:48.428Z,99796.52
2022-08-05T01:29:47.352Z,99793.50
2022-08-05T01:32:39.822Z,99785.46
2022-08-05T01:35:51.698Z,99784.01
2022-08-05T01:38:43.143Z,99781.06
2022-08-05T01:41:37.585Z,99779.33
2022-08-05T01:44:35.295Z,99778.12
2022-08-05T01:47:39.568Z,99779.20
2022-08-05T01:50:39.215Z,99779.96
2022-08-05T01:53:58.047Z,99780.54
2022-08-05T01:58:10.983Z,99776.86
2022-08-05T01:59:55.074Z,99778.19
2022-08-05T02:03:03.696Z,99775.67
2022-08-05T02:05:57.854Z,99781.66
2022-08-05T02:08:55.201Z,99779.34
2022-08-05T02:12:22.829Z,99779.20
2022-08-05T02:15:19.822Z,99772.25
2022-08-05T02:18:33.085Z,99771.14
2022-08-05T02:21:30.773Z,99767.45
2022-08-05T02:24:39.362Z,99771.65
2022-08-05T02:27:57.932Z,99767.08
2022-08-05T02:30:56.660Z,99769.72
2022-08-05T02:33:57.513Z,99771.32
2022-08-05T02:36:57.607Z,99774.78
2022-08-05T02:39:47.862Z,99773.14
2022-08-05T02:42:40.371Z,99776.41
2022-08-05T02:45:51.450Z,99773.16
2022-08-05T02:48:39.285Z,99769.05
2022-08-05T02:52:03.917Z,99770.48
2022-08-05T02:54:42.805Z,99766.64
2022-08-05T02:58:10.886Z,99767.33
2022-08-05T03:00:51.308Z,99765.02
2022-08-05T03:04:02.031Z,99764.50
2022-08-05T03:06:55.331Z,99769.58
2022-08-05T03:09:51.592Z,99764.41
2022-08-05T03:12:41.146Z,99760.91
2022-08-05T03:15:29.257Z,99763.81
2022-08-05T03:18:17.547Z,99764.46
2022-08-05T03:21:13.312Z,99765.54
2022-08-05T03:24:03.611Z,99764.10
2022-08-05T03:26:52.769Z,99766.77
2022-08-05T03:29:45.378Z,99764.44
2022-08-05T03:32:51.927Z,99757.35
2022-08-05T03:35:41.669Z,99755.82
2022-08-05T03:38:33.181Z,99757.03
2022-08-05T03:41:23.644Z,99760.51
2022-08-05T03:44:12.166Z,99765.61
2022-08-05T03:47:00.494Z,99769.66
2022-08-05T03:49:52.448Z,99766.95
2022-08-05T03:54:59.250Z,99761.58
2022-08-05T03:56:38.756Z,99769.42
2022-08-05T03:59:54.815Z,99772.04
2022-08-05T04:02:58.331Z,99777.09
2022-08-05T04:05:47.855Z,99777.20
2022-08-05T04:08:37.043Z,99774.52
2022-08-05T04:11:50.541Z,99768.38
2022-08-05T04:14:36.228Z,99765.77
2022-08-05T04:17:25.006Z,99764.72
2022-08-05T04:20:32.784Z,99760.77
2022-08-05T04:23:57.329Z,99760.95
2022-08-05T04:26:34.291Z,99759.52
2022-08-05T04:29:25.066Z,99762.11
2022-08-05T04:32:15.707Z,99764.13
2022-08-05T04:35:19.614Z,99767.05
2022-08-05T04:38:08.251Z,99765.07
2022-08-05T04:40:56.490Z,99764.41
2022-08-05T04:43:48.066Z,99765.16
2022-08-05T04:46:40.108Z,99756.44
2022-08-05T04:49:38.894Z,99750.23
2022-08-05T04:52:36.650Z,99751.96
2022-08-05T04:56:14.587Z,99754.70
2022-08-05T04:58:33.224Z,99758.01
2022-08-05T05:01:33.634Z,99759.20
2022-08-05T05:04:29.308Z,99755.87
2022-08-05T05:07:17.932Z,99755.98
2022-08-05T05:10:07.146Z,99750.68
2022-08-05T05:12:55.251Z,99760.80
2022-08-05T05:15:57.134Z,99757.76
2022-08-05T05:19:16.414Z,99754.52
2022-08-05T05:21:58.118Z,99747.80
2022-08-05T05:24:57.082Z,99742.34
2022-08-05T05:27:53.464Z,99742.08
2022-08-05T05:30:41.691Z,99744.73
2022-08-05T05:33:30.448Z,99738.17
2022-08-05T05:36:38.575Z,99739.48
2022-08-05T05:39:34.579Z,99738.60
2022-08-05T05:42:24.173Z,99736.64
2022-08-05T05:45:12.413Z,99735.99
2022-08-05T05:48:09.018Z,99733.49
2022-08-05T05:50:57.096Z,99735.48
2022-08-05T05:53:54.141Z,99735.05
2022-08-05T05:56:47.377Z,99738.30
2022-08-05T05:59:40.385Z,99736.68
2022-08-05T06:02:36.708Z,99735.41
2022-08-05T06:05:25.866Z,99729.85
2022-08-05T06:08:15.269Z,99735.41
2022-08-05T06:11:20.328Z,99736.59
2022-08-05T06:14:08.301Z,99741.54
2022-08-05T06:16:56.858Z,99742.45
2022-08-05T06:19:56.851Z,99742.87
2022-08-05T06:22:47.992Z,99742.23
2022-08-05T06:26:12.943Z,99745.39
2022-08-05T06:28:43.691Z,99741.58
2022-08-05T06:31:34.376Z,99732.13
2022-08-05T06:34:22.527Z,99729.52
2022-08-05T06:37:16.919Z,99726.36
2022-08-05T06:40:27.723Z,99719.68
2022-08-05T06:43:59.693Z,99722.84
2022-08-05T06:46:30.320Z,99716.54
2022-08-05T06:49:18.810Z,99711.30
2022-08-05T06:52:37.277Z,99716.02
2022-08-05T06:55:18.059Z,99716.41
2022-08-05T06:58:20.250Z,99712.52
2022-08-05T07:01:14.697Z,99708.55
2022-08-05T07:04:08.709Z,99697.36
2022-08-05T07:06:57.237Z,99705.98
2022-08-05T07:09:45.940Z,99702.23
2022-08-05T07:13:02.685Z,99704.88
2022-08-05T07:16:08.907Z,99699.24
2022-08-05T07:19:00.395Z,99699.15
2022-08-05T07:22:00.760Z,99689.64
2022-08-05T07:24:52.645Z,99691.69
2022-08-05T07:27:58.692Z,99691.55
2022-08-05T07:30:52.772Z,99691.45
2022-08-05T07:33:43.323Z,99690.52
2022-08-05T07:36:33.690Z,99685.48
2022-08-05T07:40:03.593Z,99684.45
2022-08-05T07:42:33.473Z,99686.89
2022-08-05T07:45:44.063Z,99684.78
2022-08-05T07:49:01.499Z,99684.50
2022-08-05T07:51:40.848Z,99681.11
2022-08-05T07:54:41.158Z,99693.66
2022-08-05T07:57:52.259Z,99690.35
2022-08-05T08:00:44.900Z,99692.29
2022-08-05T08:03:45.019Z,99694.26
2022-08-05T08:06:33.655Z,99693.25
2022-08-05T08:09:24.344Z,99691.88
2022-08-05T08:12:33.541Z,99683.86
2022-08-05T08:16:35.915Z,99687.81
2022-08-05T08:18:33.932Z,99690.74
2022-08-05T08:21:22.015Z,99696.52
2022-08-05T08:24:14.083Z,99689.69
2022-08-05T08:27:03.126Z,99680.95
2022-08-05T08:30:05.125Z,99677.13
2022-08-05T08:33:13.714Z,99675.92
2022-08-05T08:36:37.510Z,99671.84
2022-08-05T08:39:15.641Z,99672.77
2022-08-05T08:42:10.739Z,99666.72
2022-08-05T08:45:19.919Z,99666.65
2022-08-05T08:48:36.137Z,99676.67
2022-08-05T08:52:05.671Z,99678.16
2022-08-05T08:54:42.279Z,99672.98
2022-08-05T08:57:48.386Z,99680.80
2022-08-05T09:00:41.415Z,99682.05
2022-08-05T09:03:45.069Z,99673.04
2022-08-05T09:06:36.300Z,99664.63
2022-08-05T09:09:24.377Z,99666.86
2022-08-05T09:12:20.152Z,99664.53
2022-08-05T09:15:18.510Z,99665.69
2022-08-05T09:18:09.612Z,99655.70
2022-08-05T09:21:01.276Z,99660.02
2022-08-05T09:24:04.834Z,99653.08
2022-08-05T09:26:58.819Z,99657.79
2022-08-05T09:29:47.707Z,99655.23
2022-08-05T09:32:51.879Z,99650.44
2022-08-05T09:35:56.023Z,99649.80
2022-08-05T09:39:18.328Z,99640.38
2022-08-05T09:42:17.371Z,99644.58
2022-08-05T09:46:04.933Z,99640.12
2022-08-05T09:48:32.494Z,99629.55
2022-08-05T09:51:38.361Z,99630.52
2022-08-05T09:54:31.872Z,99628.02
2022-08-05T09:57:45.406Z,99627.01
2022-08-05T10:00:35.005Z,99634.63
2022-08-05T10:03:23.654Z,99621.01
2022-08-05T10:06:34.299Z,99613.42
2022-08-05T10:09:28.438Z,99615.15
2022-08-05T10:12:18.589Z,99607.90
2022-08-05T10:15:25.835Z,99614.81
2022-08-05T10:18:22.476Z,99606.27
2022-08-05T10:21:15.590Z,99603.16
2022-08-05T10:24:11.074Z,99608.86
2022-08-05T10:27:01.199Z,99600.09
2022-08-05T10:30:06.804Z,99592.63
2022-08-05T10:33:02.916Z,99588.16
2022-08-05T10:35:59.223Z,99595.88
2022-08-05T10:38:53.271Z,99580.34
2022-08-05T10:42:11.433Z,99578.86
2022-08-05T10:45:01.051Z,99589.27
2022-08-05T10:48:29.457Z,99578.17
2022-08-05T10:51:00.740Z,99578.29
2022-08-05T10:53:51.147Z,99574.94
2022-08-05T10:56:52.902Z,99572.83
2022-08-05T11:00:02.260Z,99570.71
2022-08-05T11:03:24.452Z,99573.38
2022-08-05T11:06:17.886Z,99555.98
2022-08-05T11:09:32.073Z,99557.23
2022-08-05T11:12:37.278Z,99557.20
2022-08-05T11:15:59.465Z,99548.02
2022-08-05T11:18:46.928Z,99540.05
2022-08-05T11:21:48.675Z,99539.31
2022-08-05T11:24:38.816Z,99548.16
2022-08-05T11:27:51.826Z,99546.29
2022-08-05T11:30:58.775Z,99534.35
2022-08-05T11:33:47.868Z,99534.55
2022-08-05T11:36:47.407Z,99531.98
2022-08-05T11:40:00.284Z,99524.20
2022-08-05T11:42:51.780Z,99525.09
2022-08-05T11:46:23.374Z,99523.83
2022-08-05T11:48:58.337Z,99526.85
2022-08-05T11:51:53.860Z,99514.73
2022-08-05T11:54:43.610Z,99511.97
2022-08-05T11:58:10.690Z,99513.46
2022-08-05T12:01:03.853Z,99524.03
2022-08-05T12:03:57.391Z,99517.83
2022-08-05T12:06:48.715Z,99517.27
2022-08-05T12:09:53.319Z,99502.85
2022-08-05T12:12:58.305Z,99511.66
2022-08-05T12:15:49.903Z,99520.63
2022-08-05T12:18:39.977Z,99505.35
2022-08-05T12:21:34.188Z,99509.32
2022-08-05T12:24:27.137Z,99501.58
2022-08-05T12:27:25.466Z,99506.87
2022-08-05T12:30:15.285Z,99497.74
2022-08-05T12:33:07.462Z,99489.92
2022-08-05T12:36:12.797Z,99493.11
2022-08-05T12:39:01.861Z,99488.43
2022-08-05T12:42:02.444Z,99489.39
2022-08-05T12:44:50.445Z,99494.55
2022-08-05T12:47:43.329Z,99492.51
2022-08-05T12:52:11.050Z,99496.15
2022-08-05T12:54:26.634Z,99496.09
2022-08-05T12:57:23.253Z,99490.32
2022-08-05T13:02:00.259Z,99490.73
2022-08-05T13:03:43.158Z,99489.34
2022-08-05T13:06:37.101Z,99485.06
2022-08-05T13:09:28.006Z,99484.05
2022-08-05T13:12:18.921Z,99474.25
2022-08-05T13:15:13.868Z,99475.24
2022-08-05T13:18:07.184Z,99477.68
2022-08-05T13:20:55.617Z,99467.24
2022-08-05T13:23:50.961Z,99459.49
2022-08-05T13:26:40.865Z,99465.40
2022-08-05T13:29:37.377Z,99466.40
2022-08-05T13:32:30.682Z,99457.48
2022-08-05T13:35:43.048Z,99461.41
2022-08-05T13:38:36.274Z,99454.26
2022-08-05T13:41:35.916Z,99455.70
2022-08-05T13:44:25.960Z,99461.33
2022-08-05T13:47:34.658Z,99448.48
2022-08-05T13:50:23.073Z,99448.79
2022-08-05T13:53:15.629Z,99450.34
2022-08-05T13:56:04.989Z,99446.94
2022-08-05T13:59:21.110Z,99446.30
2022-08-05T14:02:20.059Z,99442.23
2022-08-05T14:05:48.074Z,99440.06
2022-08-05T14:08:32.506Z,99440.82
2022-08-05T14:11:22.189Z,99439.05
2022-08-05T14:14:10.439Z,99439.76
2022-08-05T14:17:00.361Z,99434.51
2022-08-05T14:19:56.108Z,99435.95
2022-08-05T14:22:50.073Z,99430.71
2022-08-05T14:25:38.302Z,99425.35
2022-08-05T14:28:33.817Z,99426.21
2022-08-05T14:32:02.515Z,99432.08
2022-08-05T14:34:35.171Z,99430.55
2022-08-05T14:37:45.475Z,99446.27
2022-08-05T14:40:32.411Z,99446.61
2022-08-05T14:43:21.651Z,99460.84
2022-08-05T14:46:30.959Z,99461.88
2022-08-05T14:49:59.264Z,99462.34
2022-08-05T14:52:56.800Z,99459.30
2022-08-05T14:55:52.053Z,99458.69
2022-08-05T14:58:47.724Z,99458.50
2022-08-05T15:01:47.858Z,99453.15
2022-08-05T15:04:37.393Z,99456.33
2022-08-05T15:08:08.765Z,99453.94
2022-08-05T15:10:33.792Z,99448.14
2022-08-05T15:13:24.310Z,99450.58
2022-08-05T15:16:30.867Z,99454.56
2022-08-05T15:19:23.593Z,99452.30
2022-08-05T15:22:13.080Z,99445.50
2022-08-05T15:25:14.039Z,99436.81
2022-08-05T15:28:17.938Z,99437.48
2022-08-05T15:31:23.109Z,99437.19
2022-08-05T15:34:32.991Z,99437.64
2022-08-05T15:38:33.604Z,99431.14
2022-08-05T15:41:03.091Z,99433.25
2022-08-05T15:43:45.878Z,99431.06
2022-08-05T15:46:37.705Z,99431.89
2022-08-05T15:49:52.103Z,99431.99
2022-08-05T15:52:53.303Z,99432.00
2022-08-05T15:56:03.043Z,99434.70
2022-08-05T15:58:52.146Z,99433.16
2022-08-05T16:01:52.875Z,99435.20
2022-08-05T16:04:44.710Z,99426.09
2022-08-05T16:07:35.743Z,99423.88
2022-08-05T16:10:25.486Z,99420.39
2022-08-05T16:13:23.222Z,99423.05
2022-08-05T16:16:12.442Z,99418.11
2022-08-05T16:19:00.710Z,99420.98
2022-08-05T16:22:00.136Z,99430.83
2022-08-05T16:24:51.003Z,99433.23
2022-08-05T16:28:00.292Z,99435.96
2022-08-05T16:30:50.383Z,99436.48
2022-08-05T16:33:41.691Z,99430.20
2022-08-05T16:36:29.942Z,99426.39
2022-08-05T16:39:20.688Z,99424.05
2022-08-05T16:42:13.688Z,99418.75
2022-08-05T16:46:06.860Z,99411.88
2022-08-05T16:48:25.183Z,99417.64
2022-08-05T16:51:14.724Z,99427.10
2022-08-05T16:54:11.275Z,99442.61
2022-08-05T16:57:06.772Z,99459.24
2022-08-05T17:00:12.165Z,99474.56
2022-08-05T17:03:15.434Z,99488.48
2022-08-05T17:06:09.074Z,99497.20
2022-08-05T17:08:58.835Z,99503.52
2022-08-05T17:11:48.675Z,99506.87
2022-08-05T17:14:38.296Z,99520.64
2022-08-05T17:17:42.879Z,99514.35
2022-08-05T17:20:32.556Z,99516.51
2022-08-05T17:24:05.450Z,99521.99
2022-08-05T17:26:34.125Z,99538.54
2022-08-05T17:29:33.111Z,99538.10
2022-08-05T17:32:28.448Z,99535.71
2022-08-05T17:35:20.991Z,99540.52
2022-08-05T17:38:10.075Z,99558.36
2022-08-05T17:41:01.456Z,99577.97
2022-08-05T17:43:53.390Z,99607.35
2022-08-05T17:46:42.588Z,99657.76
2022-08-05T17:49:59.640Z,99644.55
2022-08-05T17:52:52.585Z,99627.23
2022-08-05T17:55:42.722Z,99656.08
2022-08-05T17:58:32.950Z,99652.43
2022-08-05T18:01:20.753Z,99637.48
2022-08-05T18:04:11.996Z,99664.20
2022-08-05T18:07:01.911Z,99685.46
2022-08-05T18:09:59.475Z,99675.38
2022-08-05T18:12:50.037Z,99672.62
2022-08-05T18:15:38.579Z,99648.80
2022-08-05T18:18:26.591Z,99626.19
2022-08-05T18:21:21.134Z,99624.15
2022-08-05T18:24:12.548Z,99620.92
2022-08-05T18:27:02.300Z,99594.91
2022-08-05T18:29:54.370Z,99574.95
2022-08-05T18:32:42.675Z,99607.48
2022-08-05T18:35:49.759Z,99606.11
2022-08-05T18:38:50.074Z,99613.61
2022-08-05T18:41:55.342Z,99605.46
2022-08-05T18:44:56.247Z,99596.63
2022-08-05T18:47:44.518Z,99598.54
2022-08-05T18:50:55.406Z,99594.05
2022-08-05T18:53:50.954Z,99601.21
2022-08-05T18:56:39.156Z,99612.06
2022-08-05T18:59:42.632Z,99616.35
2022-08-05T19:02:38.161Z,99619.55
2022-08-05T19:06:11.283Z,99626.64
2022-08-05T19:08:35.665Z,99638.32
2022-08-05T19:11:28.378Z,99649.09
2022-08-05T19:14:37.754Z,99662.09
2022-08-05T19:17:59.080Z,99678.77
2022-08-05T19:20:47.142Z,99680.70
2022-08-05T19:24:07.615Z,99668.40
2022-08-05T19:26:54.834Z,99673.14
2022-08-05T19:29:44.105Z,99676.55
2022-08-05T19:32:32.468Z,99673.73
2022-08-05T19:35:21.763Z,99670.48
2022-08-05T19:38:10.174Z,99656.73
2022-08-05T19:41:01.708Z,99642.96
2022-08-05T19:44:04.765Z,99652.59
2022-08-05T19:46:57.711Z,99659.94
2022-08-05T19:49:48.265Z,99668.77
2022-08-05T19:52:36.285Z,99662.73
2022-08-05T19:56:14.353Z,99660.13
2022-08-05T19:58:53.098Z,99666.52
2022-08-05T20:01:41.495Z,99671.58
2022-08-05T20:04:32.113Z,99678.00
2022-08-05T20:07:46.618Z,99692.30
2022-08-05T20:10:28.330Z,99710.55
2022-08-05T20:13:17.711Z,99728.91
2022-08-05T20:16:06.580Z,99743.55
2022-08-05T20:18:55.542Z,99761.85
2022-08-05T20:21:43.665Z,99770.36
2022-08-05T20:24:34.572Z,99770.89
2022-08-05T20:27:27.419Z,99772.66
2022-08-05T20:30:30.653Z,99771.30
2022-08-05T20:33:18.505Z,99770.19
2022-08-05T20:36:11.210Z,99777.17
2022-08-05T20:38:59.360Z,99785.48
2022-08-05T20:41:48.188Z,99781.92
2022-08-05T20:44:37.968Z,99774.36
2022-08-05T20:47:32.149Z,99777.95
2022-08-05T20:50:20.846Z,99776.52
2022-08-05T20:53:15.931Z,99780.07
2022-08-05T20:56:28.744Z,99775.80
2022-08-05T20:59:26.195Z,99770.75
2022-08-05T21:02:18.076Z,99773.73
2022-08-05T21:05:06.963Z,99771.10
2022-08-05T21:07:57.727Z,99772.59
2022-08-05T21:10:49.105Z,99768.02
2022-08-05T21:13:47.959Z,99768.86
2022-08-05T21:16:45.620Z,99768.05
2022-08-05T21:19:46.710Z,99766.29
2022-08-05T21:22:38.752Z,99766.30
2022-08-05T21:25:33.721Z,99768.95
2022-08-05T21:28:23.953Z,99770.95
2022-08-05T21:31:19.664Z,99775.75
2022-08-05T21:34:08.623Z,99779.53
2022-08-05T21:36:58.964Z,99783.40
2022-08-05T21:39:46.853Z,99791.79
2022-08-05T21:42:43.750Z,99796.26
2022-08-05T21:45:51.524Z,99792.07
2022-08-05T21:48:41.701Z,99798.87
2022-08-05T21:52:21.871Z,99801.23
2022-08-05T21:54:41.511Z,99804.57
2022-08-05T21:57:31.209Z,99802.82
2022-08-05T22:00:20.147Z,99793.38
2022-08-05T22:03:15.332Z,99799.52
2022-08-05T22:06:06.649Z,99802.27
2022-08-05T22:08:56.766Z,99798.42
2022-08-05T22:11:46.758Z,99792.83
2022-08-05T22:14:37.931Z,99793.43
2022-08-05T22:17:27.012Z,99797.92
2022-08-05T22:20:16.659Z,99801.39
2022-08-05T22:23:24.922Z,99800.20
2022-08-05T22:26:51.741Z,99799.77
2022-08-05T22:29:39.886Z,99805.19
2022-08-05T22:32:28.869Z,99811.06
2022-08-05T22:35:17.654Z,99813.36
2022-08-05T22:38:06.985Z,99809.71
2022-08-05T22:40:58.298Z,99810.09
2022-08-05T22:43:49.962Z,99803.71
2022-08-05T22:46:40.940Z,99810.20
2022-08-05T22:50:20.984Z,99817.09
2022-08-05T22:52:37.397Z,99821.70
2022-08-05T22:55:26.064Z,99823.35
2022-08-05T22:58:14.693Z,99824.45
2022-08-05T23:01:03.409Z,99812.70
2022-08-05T23:03:58.460Z,99812.24
2022-08-05T23:06:48.012Z,99819.84
2022-08-05T23:09:58.229Z,99825.45
2022-08-05T23:12:44.118Z,99827.69
2022-08-05T23:15:35.245Z,99833.34
2022-08-05T23:18:24.572Z,99842.31
2022-08-05T23:21:12.819Z,99851.91
2022-08-05T23:24:11.119Z,99851.30
2022-08-05T23:26:59.658Z,99858.77
2022-08-05T23:29:50.578Z,99856.03
2022-08-05T23:32:45.149Z,99860.65
2022-08-05T23:35:34.344Z,99866.65
2022-08-05T23:38:22.669Z,99866.66
2022-08-05T23:41:11.548Z,99875.75
2022-08-05T23:44:06.215Z,99877.54
2022-08-05T23:46:57.238Z,99875.34
2022-08-05T23:49:46.524Z,99879.35
2022-08-05T23:52:36.020Z,99883.52
2022-08-05T23:55:31.063Z,99884.24
2022-08-05T23:58:31.292Z,99881.91
